Terminal Aerodrome Forecast
Issued by NWS Key West, FL

Home | Current Version | Previous Version | Text Only | Print | Product List | Glossary On
Versions: 1 2 3 4 5 6 7 8 9 10 11 12 13 14 15 16 17 18 19 20 21 22 23 24 25 26 27 28 29 30 31 32 33 34 35 36 37 38 39 40 41 42
000
FTUS42 KKEY 311034 AAB
TAFEYW
TAF AMD
KEYW 311034Z 3111/0106 11007KT P6SM VCSH FEW020 SCT030 BKN100
     FM311700 11009KT P6SM FEW018 SCT025 BKN120=

USA.gov is the U.S. government's official web portal to all federal, state and local government web resources and services.